O'Neals, California
Current Conditions -  °F | °C
As of 8:53 AM on Saturday 25 Oct 2014 (Local Time) from KFAT Reporting Station
Haze Haze  
Wind Chill: 62°   Ceiling: Unl
Heat Index: 62°   Visibility: 6mi
Dew Point: 46°   Wind: 3mph
Humidity: 56%   Direction: 60°ENE
Pressure: 30.05"   Gusts: NA
Location:  37.13°N, 119.7°W
Report Text: KFAT 251553Z 06003KT 6SM HZ CLR 17/08 A3005 RMK AO2 SLP174 T01670078
Loading
Personal Weather Stations






























Interactive Weather Map
Tropical Storm Tracking
New forecast layout! Learn more

10-Day Weather Forecast

Advertisements
Track Severe Weather on mobile